Time;durP1;ratioP1;P1;durP2;ratioP2;P2;SDS_P1;SDS_P2;PMS_P1;PMS_P2;Temp;Humidity;BMP_temperature;BMP_pressure;BME280_temperature;BME280_humidity;BME280_pressure;Samples;Min_cycle;Max_cycle;Signal;HPM_P1;HPM_P2
2022/04/10 00:01:25;;;;;;;12.47;1.80;;;2.40;99.90;;;;;;5038827;28;20053;-48
2022/04/10 00:03:51;;;;;;;10.00;1.30;;;2.40;99.90;;;;;;5046049;28;20044;-49
2022/04/10 00:06:16;;;;;;;11.18;1.27;;;2.40;99.90;;;;;;5047317;28;20041;-48
2022/04/10 00:08:42;;;;;;;11.23;1.50;;;2.40;99.90;;;;;;5043808;28;20406;-48
2022/04/10 00:11:07;;;;;;;9.70;2.00;;;2.40;99.90;;;;;;5052996;28;20037;-48
2022/04/10 00:13:33;;;;;;;6.90;1.03;;;2.40;99.90;;;;;;5036868;28;20033;-48
2022/04/10 00:15:58;;;;;;;8.07;1.57;;;2.30;99.90;;;;;;5034085;28;20042;-47
2022/04/10 00:18:24;;;;;;;11.77;2.77;;;2.30;99.90;;;;;;5043767;28;20049;-49
2022/04/10 00:20:50;;;;;;;5.93;1.70;;;2.40;99.90;;;;;;5044109;28;20119;-48
2022/04/10 00:23:15;;;;;;;14.67;3.17;;;2.40;99.90;;;;;;5046199;28;20410;-48
2022/04/10 00:25:41;;;;;;;8.43;2.17;;;2.40;99.90;;;;;;5033635;28;20041;-48
2022/04/10 00:28:08;;;;;;;10.80;1.40;;;2.40;99.90;;;;;;5038220;28;20051;-48
2022/04/10 00:30:33;;;;;;;9.82;2.20;;;2.40;99.90;;;;;;5051846;28;20049;-49
2022/04/10 00:33:00;;;;;;;10.17;2.70;;;2.40;99.90;;;;;;5041480;28;20037;-47
2022/04/10 00:35:25;;;;;;;;;;;2.50;99.90;;;;;;5051386;28;20387;-48
2022/04/10 00:37:51;;;;;;;9.52;2.40;;;2.50;99.90;;;;;;5051064;28;19923;-48
2022/04/10 00:40:16;;;;;;;5.43;1.70;;;2.50;99.90;;;;;;5032940;28;20040;-48
2022/04/10 00:42:51;;;;;;;13.10;1.80;;;2.50;99.90;;;;;;5038850;28;20745;-47
2022/04/10 00:45:17;;;;;;;12.15;2.63;;;2.50;99.90;;;;;;5051424;28;20051;-48
2022/04/10 00:47:45;;;;;;;;;;;2.50;99.90;;;;;;5038476;28;20037;-48
2022/04/10 00:50:12;;;;;;;14.00;2.22;;;2.50;99.90;;;;;;5050527;28;20336;-48
2022/04/10 00:52:38;;;;;;;14.27;2.58;;;2.40;99.90;;;;;;5049046;28;20041;-48
2022/04/10 00:55:04;;;;;;;11.65;1.63;;;2.40;99.90;;;;;;5050085;28;20556;-50
2022/04/10 00:57:30;;;;;;;12.55;2.45;;;2.40;99.90;;;;;;5035156;28;20029;-49
2022/04/10 00:59:56;;;;;;;6.53;1.73;;;2.40;99.90;;;;;;5046612;28;20101;-48
2022/04/10 01:02:21;;;;;;;8.90;2.83;;;2.40;99.90;;;;;;5035014;28;20447;-49
2022/04/10 01:04:47;;;;;;;8.33;2.47;;;2.30;99.90;;;;;;5046493;28;20042;-49
2022/04/10 01:07:15;;;;;;;9.03;1.80;;;2.30;99.90;;;;;;5047667;28;20123;-47
2022/04/10 01:09:41;;;;;;;8.07;1.75;;;2.30;99.90;;;;;;5051302;28;20180;-48
2022/04/10 01:12:07;;;;;;;7.85;1.77;;;2.20;99.90;;;;;;5038119;28;20116;-48
2022/04/10 01:14:33;;;;;;;11.57;1.55;;;2.20;99.90;;;;;;5035465;28;20080;-48
2022/04/10 01:16:59;;;;;;;11.60;2.03;;;2.30;99.90;;;;;;5041606;28;20041;-48
2022/04/10 01:19:25;;;;;;;10.38;1.55;;;2.20;99.90;;;;;;5032167;28;20382;-48
2022/04/10 01:21:53;;;;;;;4.80;1.37;;;2.20;99.90;;;;;;5031654;28;20156;-50
2022/04/10 01:24:19;;;;;;;9.30;2.42;;;2.30;99.90;;;;;;5050545;28;20106;-48
2022/04/10 01:26:45;;;;;;;10.73;1.33;;;2.30;99.90;;;;;;5050417;28;20045;-49
2022/04/10 01:29:13;;;;;;;9.50;2.37;;;2.30;99.90;;;;;;5032742;28;20048;-48
2022/04/10 01:31:44;;;;;;;10.88;1.85;;;2.30;99.90;;;;;;5032134;28;20268;-48
2022/04/10 01:34:13;;;;;;;9.23;1.63;;;2.40;99.90;;;;;;5049487;28;20397;-49
2022/04/10 01:36:40;;;;;;;11.82;2.60;;;2.40;99.90;;;;;;5048611;28;20072;-48
2022/04/10 01:39:06;;;;;;;;;;;2.40;99.90;;;;;;5052649;28;20436;-48
2022/04/10 01:41:34;;;;;;;10.68;1.70;;;2.40;99.90;;;;;;5035604;28;20193;-49
2022/04/10 01:44:00;;;;;;;9.93;2.00;;;2.40;99.90;;;;;;5038450;28;20048;-49
2022/04/10 01:46:28;;;;;;;7.47;1.25;;;2.30;99.90;;;;;;5049245;28;20048;-51
2022/04/10 01:48:54;;;;;;;10.73;1.50;;;2.30;99.90;;;;;;5050833;28;20385;-48
2022/04/10 01:51:19;;;;;;;13.38;1.90;;;2.30;99.90;;;;;;5046678;28;20049;-49
2022/04/10 01:53:45;;;;;;;5.47;1.27;;;2.30;99.90;;;;;;5032678;28;20041;-48
2022/04/10 01:56:11;;;;;;;5.93;1.73;;;2.20;99.90;;;;;;5036302;28;20407;-48
2022/04/10 01:58:42;;;;;;;10.02;2.65;;;2.30;99.90;;;;;;5031811;28;20048;-48
2022/04/10 02:01:10;;;;;;;7.20;1.40;;;2.20;99.90;;;;;;5033317;28;20041;-49
2022/04/10 02:03:36;;;;;;;7.00;1.40;;;2.20;99.90;;;;;;5048890;28;20049;-48
2022/04/10 02:06:03;;;;;;;8.55;1.83;;;2.20;99.90;;;;;;5049628;28;20049;-47
2022/04/10 02:08:30;;;;;;;15.07;2.65;;;2.20;99.90;;;;;;5033210;28;20429;-49
2022/04/10 02:10:56;;;;;;;;;;;2.20;99.90;;;;;;5033463;28;20084;-49
2022/04/10 02:13:22;;;;;;;14.10;2.08;;;2.10;99.90;;;;;;5031245;28;19924;-49
2022/04/10 02:15:48;;;;;;;5.38;1.27;;;2.10;99.90;;;;;;5041496;28;20056;-47
2022/04/10 02:18:14;;;;;;;6.77;2.63;;;2.10;99.90;;;;;;5050102;28;20044;-48
2022/04/10 02:20:40;;;;;;;13.20;2.17;;;2.10;99.90;;;;;;5042146;28;20108;-48
2022/04/10 02:23:06;;;;;;;5.80;1.90;;;2.10;99.90;;;;;;5031317;28;20108;-49
2022/04/10 02:25:31;;;;;;;13.25;2.25;;;2.10;99.90;;;;;;5033329;28;20082;-48
2022/04/10 02:27:57;;;;;;;12.23;1.83;;;2.10;99.90;;;;;;5050652;28;20110;-48
2022/04/10 02:30:22;;;;;;;17.97;1.93;;;2.10;99.90;;;;;;5048084;28;20123;-48
2022/04/10 02:32:48;;;;;;;12.70;1.83;;;2.00;99.90;;;;;;5044278;28;20072;-48
2022/04/10 02:35:14;;;;;;;12.43;1.83;;;2.10;99.90;;;;;;5034689;28;20071;-49
2022/04/10 02:37:40;;;;;;;10.40;1.97;;;2.00;99.90;;;;;;5049531;28;20056;-49
2022/04/10 02:40:07;;;;;;;13.75;2.78;;;2.00;99.90;;;;;;5047828;28;20137;-48
2022/04/10 02:42:36;;;;;;;11.02;2.15;;;2.00;99.90;;;;;;5031836;28;20385;-48
2022/04/10 02:45:03;;;;;;;7.22;1.90;;;2.00;99.90;;;;;;5034614;28;20512;-48
2022/04/10 02:47:30;;;;;;;;;;;2.00;99.90;;;;;;5044249;28;20044;-48
2022/04/10 02:49:56;;;;;;;13.43;1.92;;;2.00;99.90;;;;;;5044122;28;19917;-50
2022/04/10 02:52:22;;;;;;;11.95;2.20;;;2.00;99.90;;;;;;5047628;28;20086;-48
2022/04/10 02:54:48;;;;;;;10.57;1.80;;;2.10;99.90;;;;;;5030117;28;20112;-48
2022/04/10 02:57:13;;;;;;;14.40;1.53;;;2.00;99.90;;;;;;5047914;28;20124;-49
2022/04/10 02:59:39;;;;;;;17.13;1.73;;;2.00;99.90;;;;;;5049235;28;20036;-49
2022/04/10 03:02:05;;;;;;;13.47;1.50;;;2.00;99.90;;;;;;5048411;28;20148;-49
2022/04/10 03:04:30;;;;;;;11.30;1.70;;;2.10;99.90;;;;;;5047742;28;20041;-49
2022/04/10 03:06:56;;;;;;;6.13;1.67;;;2.00;99.90;;;;;;5043350;28;20045;-51
2022/04/10 03:09:21;;;;;;;11.00;1.50;;;2.10;99.90;;;;;;5049924;28;20086;-48
2022/04/10 03:11:47;;;;;;;8.60;1.80;;;2.10;99.90;;;;;;5036135;28;20033;-47
2022/04/10 03:14:13;;;;;;;15.20;2.80;;;2.10;99.90;;;;;;5031694;28;20044;-48
2022/04/10 03:16:38;;;;;;;11.80;2.40;;;2.10;99.90;;;;;;5030404;28;20041;-51
2022/04/10 03:19:04;;;;;;;16.00;2.23;;;2.10;99.90;;;;;;5047435;28;20089;-48
2022/04/10 03:21:29;;;;;;;8.23;1.37;;;2.20;99.90;;;;;;5042580;28;20067;-49
2022/04/10 03:23:55;;;;;;;8.43;1.33;;;2.20;99.90;;;;;;5050420;28;20036;-49
2022/04/10 03:26:21;;;;;;;9.60;1.83;;;2.10;99.90;;;;;;5035982;28;20234;-48
2022/04/10 03:28:46;;;;;;;8.03;1.30;;;2.10;99.90;;;;;;5029598;28;20051;-48
2022/04/10 03:31:12;;;;;;;10.33;1.30;;;2.10;99.90;;;;;;5030204;28;20037;-48
2022/04/10 03:33:37;;;;;;;6.67;1.10;;;2.10;99.90;;;;;;5030387;28;20038;-49
2022/04/10 03:36:04;;;;;;;11.07;1.90;;;2.10;99.90;;;;;;5041760;28;20144;-49
2022/04/10 03:38:29;;;;;;;8.40;1.70;;;2.00;99.90;;;;;;5049610;28;20481;-48
2022/04/10 03:40:55;;;;;;;9.47;4.50;;;2.00;99.90;;;;;;5039256;28;20116;-50
2022/04/10 03:43:20;;;;;;;12.40;1.30;;;2.00;99.90;;;;;;5029215;28;20429;-48
2022/04/10 03:45:46;;;;;;;13.23;1.57;;;2.00;99.90;;;;;;5037695;28;20433;-49
2022/04/10 03:48:11;;;;;;;11.67;2.90;;;2.00;99.90;;;;;;5029594;28;20540;-50
2022/04/10 03:50:37;;;;;;;11.63;1.57;;;2.10;99.90;;;;;;5029592;28;20045;-49
2022/04/10 03:53:04;;;;;;;9.57;2.03;;;2.00;99.90;;;;;;5028203;28;20438;-48
2022/04/10 03:55:31;;;;;;;11.20;1.80;;;2.10;99.90;;;;;;5028148;28;20573;-46
2022/04/10 03:57:56;;;;;;;7.35;1.60;;;2.10;99.90;;;;;;5041115;28;20486;-48
2022/04/10 04:00:23;;;;;;;13.27;1.90;;;2.20;99.90;;;;;;5029522;28;20034;-48
2022/04/10 04:02:48;;;;;;;12.07;3.25;;;2.30;99.90;;;;;;5029689;28;20312;-49
2022/04/10 04:05:14;;;;;;;15.50;2.17;;;2.30;99.90;;;;;;5028771;28;20490;-49
2022/04/10 04:07:40;;;;;;;13.40;1.80;;;2.30;99.90;;;;;;5029134;28;20144;-47
2022/04/10 04:10:07;;;;;;;6.30;1.45;;;2.40;99.90;;;;;;5031616;28;20116;-47
2022/04/10 04:12:36;;;;;;;8.10;1.60;;;2.40;99.90;;;;;;5038484;28;20060;-47
2022/04/10 04:15:03;;;;;;;8.40;1.48;;;2.40;99.90;;;;;;5045001;28;20045;-47
2022/04/10 04:17:29;;;;;;;;;;;2.40;99.90;;;;;;5039408;28;20151;-47
2022/04/10 04:19:55;;;;;;;7.85;1.98;;;2.40;99.90;;;;;;5035946;28;19920;-48
2022/04/10 04:22:20;;;;;;;9.67;1.30;;;2.50;99.90;;;;;;5036843;28;20048;-48
2022/04/10 04:24:46;;;;;;;8.50;1.70;;;2.40;99.90;;;;;;5043497;28;20298;-48
2022/04/10 04:27:12;;;;;;;6.83;1.77;;;2.50;99.90;;;;;;5036678;28;20046;-47
2022/04/10 04:29:37;;;;;;;16.98;2.72;;;2.50;99.90;;;;;;5029704;28;20041;-48
2022/04/10 04:32:03;;;;;;;7.70;1.63;;;2.50;99.90;;;;;;5033664;28;20040;-48
2022/04/10 04:34:29;;;;;;;9.25;1.98;;;2.50;99.90;;;;;;5048351;28;20045;-47
2022/04/10 04:36:54;;;;;;;8.43;1.90;;;2.60;99.90;;;;;;5045554;28;20053;-48
2022/04/10 04:39:20;;;;;;;9.07;1.90;;;2.70;99.90;;;;;;5039383;28;20115;-47
2022/04/10 04:41:46;;;;;;;13.52;1.55;;;2.70;99.90;;;;;;5029197;28;20405;-48
2022/04/10 04:44:12;;;;;;;14.47;1.90;;;2.70;99.90;;;;;;5047528;28;20473;-47
2022/04/10 04:46:38;;;;;;;8.57;2.10;;;2.70;99.90;;;;;;5030759;28;20392;-48
2022/04/10 04:49:04;;;;;;;10.67;1.90;;;2.70;99.90;;;;;;5032480;28;20076;-48
2022/04/10 04:51:34;;;;;;;10.73;2.47;;;2.70;99.90;;;;;;5044759;28;20147;-49
2022/04/10 04:54:00;;;;;;;8.02;1.40;;;2.70;99.90;;;;;;5037179;28;20198;-48
2022/04/10 04:56:26;;;;;;;13.13;2.05;;;2.70;99.90;;;;;;5036301;28;20063;-50
2022/04/10 04:58:52;;;;;;;17.50;2.80;;;2.70;99.90;;;;;;5050708;28;20510;-49
2022/04/10 05:01:17;;;;;;;12.87;1.67;;;2.70;99.90;;;;;;5052363;28;20041;-49
2022/04/10 05:03:43;;;;;;;12.67;1.93;;;2.70;99.90;;;;;;5040854;28;20045;-49
2022/04/10 05:06:08;;;;;;;13.03;3.37;;;2.70;99.90;;;;;;5045620;28;20160;-48
2022/04/10 05:08:34;;;;;;;11.93;2.70;;;2.70;99.90;;;;;;5043001;28;20048;-48
2022/04/10 05:11:00;;;;;;;15.50;3.30;;;2.80;99.90;;;;;;5038167;28;20044;-49
2022/04/10 05:13:26;;;;;;;13.55;2.70;;;2.80;99.90;;;;;;5037274;28;20029;-48
2022/04/10 05:15:52;;;;;;;13.85;2.47;;;2.80;99.90;;;;;;5039906;28;20120;-48
2022/04/10 05:18:19;;;;;;;8.20;1.63;;;2.80;99.90;;;;;;5032819;28;20176;-48
2022/04/10 05:20:45;;;;;;;10.02;2.65;;;2.80;99.90;;;;;;5033149;28;20076;-49
2022/04/10 05:23:14;;;;;;;9.75;2.38;;;2.80;99.90;;;;;;5039840;28;20037;-47
2022/04/10 05:25:40;;;;;;;20.40;3.28;;;2.80;99.90;;;;;;5051820;28;20048;-49
2022/04/10 05:28:05;;;;;;;8.10;2.63;;;2.90;99.90;;;;;;5046399;28;20029;-48
2022/04/10 05:30:31;;;;;;;11.02;2.17;;;2.90;99.90;;;;;;5031434;28;20522;-49
2022/04/10 05:32:57;;;;;;;7.23;1.30;;;2.90;99.90;;;;;;5035905;28;20033;-49
2022/04/10 05:35:22;;;;;;;12.83;1.50;;;3.00;99.90;;;;;;5051989;28;20033;-50
2022/04/10 05:37:48;;;;;;;6.40;1.50;;;3.00;99.90;;;;;;5045525;28;20049;-48
2022/04/10 05:40:13;;;;;;;7.80;1.40;;;3.00;99.90;;;;;;5032210;28;20042;-49
2022/04/10 05:42:43;;;;;;;11.37;1.60;;;3.10;99.90;;;;;;5044342;28;20044;-51
2022/04/10 05:45:09;;;;;;;8.38;1.35;;;3.20;99.90;;;;;;5031108;28;20137;-52
2022/04/10 05:47:36;;;;;;;8.85;1.00;;;3.20;99.90;;;;;;5039729;28;20053;-50
2022/04/10 05:50:02;;;;;;;;;;;3.30;99.90;;;;;;5037950;28;20059;-50
2022/04/10 05:52:28;;;;;;;5.47;0.70;;;3.40;99.90;;;;;;5049923;28;20425;-48
2022/04/10 05:54:57;;;;;;;5.47;0.50;;;3.50;99.90;;;;;;5040137;28;20040;-51
2022/04/10 05:57:23;;;;;;;3.42;0.40;;;3.50;99.90;;;;;;5051255;28;20124;-48
2022/04/10 05:59:48;;;;;;;10.50;1.47;;;3.50;99.90;;;;;;5051099;28;20124;-49
2022/04/10 06:02:14;;;;;;;3.30;0.77;;;3.50;99.90;;;;;;5051704;28;20045;-49
2022/04/10 06:04:39;;;;;;;7.00;0.50;;;3.60;99.90;;;;;;5032081;28;20133;-49
2022/04/10 06:07:05;;;;;;;5.50;0.73;;;3.60;99.90;;;;;;5031257;28;20503;-48
2022/04/10 06:09:30;;;;;;;5.50;0.70;;;3.70;99.90;;;;;;5046232;28;20041;-49
2022/04/10 06:11:56;;;;;;;7.37;0.60;;;3.80;99.90;;;;;;5043283;28;20057;-48
2022/04/10 06:14:22;;;;;;;3.77;0.50;;;3.80;99.90;;;;;;5045716;28;20102;-47
2022/04/10 06:16:48;;;;;;;2.28;0.43;;;3.90;99.90;;;;;;5036894;28;20120;-50
2022/04/10 06:19:16;;;;;;;3.35;1.65;;;4.00;99.90;;;;;;5032701;28;20469;-48
2022/04/10 06:21:41;;;;;;;9.85;0.68;;;4.10;99.90;;;;;;5046752;28;20052;-49
2022/04/10 06:24:07;;;;;;;9.27;1.13;;;4.20;99.90;;;;;;5044167;28;20514;-48
2022/04/10 06:26:33;;;;;;;6.65;0.55;;;4.20;99.90;;;;;;5030096;28;20044;-49
2022/04/10 06:28:58;;;;;;;3.80;0.47;;;4.30;99.90;;;;;;5036940;28;20091;-48
2022/04/10 06:31:24;;;;;;;2.77;0.87;;;4.30;99.90;;;;;;5036374;28;20041;-47
2022/04/10 06:33:50;;;;;;;2.10;0.50;;;4.40;99.90;;;;;;5047583;28;20041;-49
2022/04/10 06:36:16;;;;;;;3.47;0.60;;;4.40;99.90;;;;;;5030328;28;20071;-49
2022/04/10 06:38:42;;;;;;;7.15;0.75;;;4.50;99.90;;;;;;5037592;28;20041;-47
2022/04/10 06:41:07;;;;;;;10.07;0.57;;;4.50;99.90;;;;;;5031800;28;20171;-49
2022/04/10 06:43:33;;;;;;;6.80;0.60;;;4.50;99.90;;;;;;5035838;28;20298;-48
2022/04/10 06:45:58;;;;;;;2.30;0.40;;;4.50;99.90;;;;;;5042658;28;20044;-50
2022/04/10 06:48:24;;;;;;;3.97;1.70;;;4.50;99.90;;;;;;5045317;28;20048;-48
2022/04/10 06:50:50;;;;;;;4.47;0.40;;;4.60;99.90;;;;;;5045790;28;20033;-48
2022/04/10 06:53:15;;;;;;;2.40;0.67;;;4.70;99.90;;;;;;5039041;28;20068;-48
2022/04/10 06:55:41;;;;;;;7.30;0.63;;;4.80;99.90;;;;;;5034130;28;20037;-47
2022/04/10 06:58:06;;;;;;;1.60;0.40;;;4.90;99.90;;;;;;5029846;28;20044;-48
2022/04/10 07:00:32;;;;;;;5.67;0.77;;;5.00;99.90;;;;;;5043302;28;20033;-48
2022/04/10 07:03:01;;;;;;;7.33;0.50;;;5.00;99.90;;;;;;5048513;28;20544;-48
2022/04/10 07:05:27;;;;;;;1.88;0.40;;;5.10;99.90;;;;;;5039183;28;20073;-49
2022/04/10 07:07:53;;;;;;;4.68;0.50;;;5.20;99.90;;;;;;5041675;28;20033;-50
2022/04/10 07:10:19;;;;;;;3.85;0.43;;;5.30;99.90;;;;;;5030870;28;20069;-47
2022/04/10 07:12:45;;;;;;;7.35;0.30;;;5.40;99.90;;;;;;5031094;28;20132;-47
2022/04/10 07:15:10;;;;;;;3.03;0.90;;;5.50;99.90;;;;;;5030053;28;20120;-48
2022/04/10 07:17:36;;;;;;;4.63;0.50;;;5.50;99.90;;;;;;5036025;28;20529;-48
2022/04/10 07:20:02;;;;;;;3.10;0.37;;;5.60;99.90;;;;;;5030220;28;20073;-52
2022/04/10 07:25:12;;;;;;;1.85;0.43;;;5.70;99.90;;;;;;5048219;28;20041;-54
2022/04/10 07:27:38;;;;;;;4.63;0.40;;;5.80;99.90;;;;;;5041692;28;20033;-49
2022/04/10 07:30:04;;;;;;;3.93;0.60;;;5.80;99.90;;;;;;5040588;28;20030;-49
2022/04/10 07:32:29;;;;;;;5.28;0.68;;;5.90;99.90;;;;;;5040026;28;20033;-51
2022/04/10 07:34:55;;;;;;;4.13;0.80;;;6.00;99.90;;;;;;5049358;28;20145;-51
2022/04/10 07:37:20;;;;;;;3.37;0.37;;;6.00;99.90;;;;;;5045725;28;20040;-52
2022/04/10 07:39:46;;;;;;;7.43;0.73;;;6.10;99.90;;;;;;5029978;28;20103;-49
2022/04/10 07:42:11;;;;;;;9.10;0.73;;;6.10;99.90;;;;;;5039293;28;20037;-53
2022/04/10 07:44:37;;;;;;;2.67;0.60;;;6.10;99.90;;;;;;5037329;28;20125;-50
2022/04/10 07:49:48;;;;;;;6.65;1.17;;;6.10;99.90;;;;;;5037910;28;20129;-52
2022/04/10 07:52:13;;;;;;;10.45;1.05;;;6.20;99.90;;;;;;5038689;28;20455;-51
2022/04/10 07:54:39;;;;;;;8.73;0.90;;;6.20;99.90;;;;;;5036831;28;20030;-51
2022/04/10 07:57:05;;;;;;;6.80;1.15;;;6.30;99.90;;;;;;5039814;28;20043;-53
2022/04/10 07:59:31;;;;;;;8.18;0.60;;;6.40;99.90;;;;;;5039377;28;20037;-53
2022/04/10 08:01:56;;;;;;;3.60;0.50;;;6.50;99.90;;;;;;5038840;28;20036;-52
2022/04/10 08:04:22;;;;;;;7.03;0.70;;;6.60;99.90;;;;;;5036176;28;20120;-51
2022/04/10 08:06:47;;;;;;;5.17;0.63;;;6.60;99.90;;;;;;5039144;28;20037;-51
2022/04/10 08:09:13;;;;;;;6.37;0.40;;;6.70;99.90;;;;;;5041460;28;20041;-49
2022/04/10 08:11:39;;;;;;;7.00;0.47;;;6.80;99.90;;;;;;5033946;28;20037;-50
2022/04/10 08:14:05;;;;;;;6.55;0.82;;;6.90;99.90;;;;;;5034215;28;20052;-50
2022/04/10 08:16:31;;;;;;;9.93;0.80;;;6.90;99.90;;;;;;5028898;28;20410;-49
2022/04/10 08:18:56;;;;;;;7.37;1.83;;;7.00;99.90;;;;;;5037379;28;20041;-49
2022/04/10 08:21:22;;;;;;;8.37;1.33;;;7.10;99.90;;;;;;5047606;28;20041;-53
2022/04/10 08:23:47;;;;;;;8.30;1.20;;;7.10;99.90;;;;;;5049953;28;20064;-50
2022/04/10 08:26:13;;;;;;;6.33;0.43;;;7.10;99.90;;;;;;5043809;28;20125;-50
2022/04/10 08:28:39;;;;;;;5.13;0.80;;;7.20;99.90;;;;;;5029793;28;20167;-50
2022/04/10 08:31:05;;;;;;;6.35;0.63;;;7.20;99.90;;;;;;5043587;28;20288;-50
2022/04/10 08:33:30;;;;;;;12.33;1.33;;;7.10;99.90;;;;;;5036148;28;20036;-50
2022/04/10 08:35:56;;;;;;;7.17;0.90;;;7.00;99.90;;;;;;5049198;28;20532;-50
2022/04/10 08:38:22;;;;;;;5.82;0.73;;;6.90;99.90;;;;;;5053380;28;20133;-50
2022/04/10 08:40:50;;;;;;;6.40;0.82;;;7.00;99.90;;;;;;5047312;28;20078;-49
2022/04/10 08:43:18;;;;;;;8.80;0.60;;;7.10;99.90;;;;;;5040367;28;20048;-49
2022/04/10 08:45:44;;;;;;;6.00;0.50;;;7.20;99.90;;;;;;5039879;28;20042;-52
2022/04/10 08:48:11;;;;;;;8.75;1.30;;;7.30;99.90;;;;;;5045743;28;20033;-51
2022/04/10 08:50:38;;;;;;;5.13;0.75;;;7.50;99.90;;;;;;5044020;28;20207;-49
2022/04/10 08:53:04;;;;;;;4.78;1.05;;;7.60;99.90;;;;;;5045371;28;20099;-50
2022/04/10 08:55:30;;;;;;;;;;;7.70;99.90;;;;;;5051709;28;20041;-53
2022/04/10 08:57:55;;;;;;;6.00;1.08;;;7.80;99.90;;;;;;5045092;28;19917;-52
2022/04/10 09:00:23;;;;;;;7.40;1.03;;;7.80;99.90;;;;;;5037489;28;20091;-50
2022/04/10 09:02:50;;;;;;;4.03;0.50;;;7.70;99.90;;;;;;5040169;28;20041;-50
2022/04/10 09:05:21;;;;;;;5.53;0.77;;;7.70;99.90;;;;;;5050263;28;20051;-52
2022/04/10 09:08:11;;;;;;;8.35;0.70;;;7.70;99.90;;;;;;5046480;28;20048;-50
2022/04/10 09:11:00;;;;;;;5.45;0.68;;;7.80;99.90;;;;;;5050321;28;20367;-50
2022/04/10 09:13:29;;;;;;;10.10;1.02;;;8.00;99.90;;;;;;5041612;28;20052;-49
2022/04/10 09:16:08;;;;;;;8.23;1.33;;;8.10;99.90;;;;;;5051282;28;20049;-49
2022/04/10 09:19:06;;;;;;;7.45;0.73;;;8.20;99.90;;;;;;5049831;28;21221;-54
2022/04/10 09:21:33;;;;;;;7.65;1.35;;;8.30;99.90;;;;;;5032873;28;20072;-52
2022/04/10 09:24:07;;;;;;;5.40;0.52;;;8.40;99.90;;;;;;5035190;28;20034;-53
2022/04/10 09:26:54;;;;;;;4.00;0.32;;;8.20;99.90;;;;;;5051724;28;20080;-51
2022/04/10 09:29:24;;;;;;;4.53;0.60;;;7.90;99.90;;;;;;5044780;28;20045;-49
2022/04/10 09:31:51;;;;;;;1.45;0.52;;;7.70;99.90;;;;;;5039936;28;20065;-49
2022/04/10 09:34:21;;;;;;;6.55;0.98;;;7.50;99.90;;;;;;5047788;28;20102;-51
2022/04/10 09:36:58;;;;;;;3.63;0.43;;;7.30;99.90;;;;;;5032003;28;20064;-54
2022/04/10 09:39:31;;;;;;;3.03;0.47;;;7.10;99.90;;;;;;5034332;28;20102;-53
2022/04/10 09:42:09;;;;;;;10.68;1.13;;;7.00;99.90;;;;;;5031283;28;20398;-55
2022/04/10 09:44:37;;;;;;;7.32;0.82;;;6.90;99.90;;;;;;5045659;28;20110;-53
2022/04/10 09:47:08;;;;;;;5.53;0.95;;;7.00;99.90;;;;;;5051317;28;20052;-54
2022/04/10 09:49:41;;;;;;;6.65;1.08;;;7.10;99.90;;;;;;5038291;28;20033;-54
2022/04/10 09:52:08;;;;;;;7.75;0.75;;;7.30;99.90;;;;;;5031757;28;20096;-53
2022/04/10 09:54:34;;;;;;;6.57;1.38;;;7.50;99.90;;;;;;5037888;28;20041;-52
2022/04/10 09:57:04;;;;;;;7.17;1.20;;;7.60;99.90;;;;;;5046031;28;20048;-53
2022/04/10 09:59:36;;;;;;;10.75;1.00;;;7.80;99.90;;;;;;5036934;28;20049;-53
2022/04/10 10:02:05;;;;;;;8.52;0.98;;;8.00;99.90;;;;;;5031786;28;20080;-50
2022/04/10 10:04:35;;;;;;;8.75;0.98;;;8.20;99.90;;;;;;5032523;28;20049;-51
2022/04/10 10:07:05;;;;;;;6.10;0.80;;;8.30;99.90;;;;;;5050758;28;20041;-54
2022/04/10 10:09:32;;;;;;;6.97;0.95;;;8.50;99.90;;;;;;5038981;28;20176;-54
2022/04/10 10:11:59;;;;;;;;;;;8.70;99.90;;;;;;5049655;28;20327;-52
2022/04/10 10:14:24;;;;;;;7.47;0.60;;;8.90;99.90;;;;;;5032233;28;19921;-52
2022/04/10 10:16:50;;;;;;;11.47;1.50;;;9.10;99.90;;;;;;5032423;28;20041;-49
2022/04/10 10:19:16;;;;;;;7.32;0.93;;;9.10;99.90;;;;;;5031378;28;20076;-49
2022/04/10 10:21:42;;;;;;;6.25;1.05;;;9.20;99.90;;;;;;5041851;28;20120;-51
2022/04/10 10:24:10;;;;;;;7.97;1.15;;;9.20;99.90;;;;;;5032508;28;20045;-50
2022/04/10 10:26:55;;;;;;;6.70;0.65;;;9.20;99.90;;;;;;5030411;28;20397;-52
2022/04/10 10:29:43;;;;;;;6.95;0.88;;;9.20;99.90;;;;;;5032322;28;20033;-51
2022/04/10 10:32:14;;;;;;;10.65;1.38;;;9.20;99.90;;;;;;5035196;28;20048;-50
2022/04/10 10:34:42;;;;;;;7.20;0.90;;;9.40;99.90;;;;;;5050553;28;20474;-52
2022/04/10 10:37:08;;;;;;;11.35;2.17;;;9.50;99.90;;;;;;5046778;28;20044;-52
2022/04/10 10:39:49;;;;;;;5.68;1.35;;;9.70;99.90;;;;;;5040136;28;20656;-49
2022/04/10 10:42:15;;;;;;;4.03;0.70;;;9.80;99.90;;;;;;5049071;28;20045;-50
2022/04/10 10:44:43;;;;;;;3.10;0.52;;;9.90;99.90;;;;;;5037352;28;20056;-50
2022/04/10 10:47:22;;;;;;;5.65;0.60;;;10.00;99.90;;;;;;5033212;28;20457;-53
2022/04/10 10:49:49;;;;;;;4.22;0.52;;;10.10;99.90;;;;;;5031270;28;20042;-50
2022/04/10 10:52:16;;;;;;;4.40;0.52;;;10.20;99.90;;;;;;5046947;28;20502;-51
2022/04/10 10:54:45;;;;;;;12.70;2.25;;;10.20;99.40;;;;;;5029718;28;20041;-51
2022/04/10 10:57:41;;;;;;;6.07;0.80;;;10.10;98.70;;;;;;5034516;28;20491;-50
2022/04/10 11:00:15;;;;;;;8.20;0.95;;;10.10;99.70;;;;;;5032570;28;20136;-49
2022/04/10 11:02:46;;;;;;;1.65;0.75;;;10.10;99.90;;;;;;5047178;28;20049;-49
2022/04/10 11:05:24;;;;;;;3.80;0.52;;;10.10;99.70;;;;;;5042475;28;20033;-49
2022/04/10 11:08:04;;;;;;;3.40;0.45;;;10.10;99.70;;;;;;5035079;28;20651;-49
2022/04/10 11:10:32;;;;;;;6.28;0.70;;;10.20;99.40;;;;;;5031598;28;20037;-51
2022/04/10 11:13:09;;;;;;;5.45;0.60;;;10.30;98.70;;;;;;5049324;28;20068;-51
2022/04/10 11:15:52;;;;;;;7.00;1.15;;;10.40;98.60;;;;;;5036473;28;20548;-50
2022/04/10 11:18:23;;;;;;;3.35;0.30;;;10.50;98.30;;;;;;5049885;28;20051;-50
2022/04/10 11:21:13;;;;;;;10.45;0.82;;;10.60;97.80;;;;;;5034407;28;20046;-50
2022/04/10 11:23:41;;;;;;;8.55;1.48;;;10.70;97.80;;;;;;5049075;28;20037;-50
2022/04/10 11:26:11;;;;;;;8.75;0.80;;;10.80;97.60;;;;;;5043601;28;20041;-52
2022/04/10 11:29:03;;;;;;;6.32;1.50;;;10.90;98.40;;;;;;5029785;28;20045;-53
2022/04/10 11:31:32;;;;;;;5.15;0.50;;;10.90;96.50;;;;;;5031181;28;20442;-50
2022/04/10 11:34:12;;;;;;;4.43;0.55;;;10.80;97.50;;;;;;5032453;28;20037;-51
2022/04/10 11:37:04;;;;;;;8.38;0.68;;;10.70;97.40;;;;;;5042303;28;20053;-50
2022/04/10 11:39:32;;;;;;;6.90;0.82;;;10.50;97.30;;;;;;5028621;28;20053;-53
2022/04/10 11:42:03;;;;;;;2.83;0.47;;;10.50;98.70;;;;;;5031607;28;20041;-53
2022/04/10 11:44:30;;;;;;;2.58;0.65;;;10.40;97.80;;;;;;5038714;28;20033;-50
2022/04/10 11:46:58;;;;;;;7.68;1.20;;;10.40;97.70;;;;;;5039056;28;20273;-50
2022/04/10 11:49:23;;;;;;;9.77;0.85;;;10.50;97.90;;;;;;5036383;28;20041;-52
2022/04/10 11:51:50;;;;;;;1.13;0.40;;;10.70;99.30;;;;;;5035793;28;20491;-52
2022/04/10 11:54:37;;;;;;;2.83;0.50;;;10.90;97.90;;;;;;5030219;28;20038;-51
2022/04/10 11:57:05;;;;;;;4.43;0.80;;;11.00;94.20;;;;;;5031786;28;20531;-54
2022/04/10 11:59:36;;;;;;;2.70;0.47;;;11.00;95.60;;;;;;5032862;28;20048;-52
2022/04/10 12:02:03;;;;;;;5.47;0.77;;;11.20;95.50;;;;;;5025277;28;20208;-53
2022/04/10 12:04:30;;;;;;;6.45;0.40;;;11.30;95.40;;;;;;5048734;28;20087;-53
2022/04/10 12:07:11;;;;;;;;;;;11.30;92.40;;;;;;5051399;28;20037;-51
2022/04/10 12:09:37;;;;;;;7.78;0.50;;;11.20;92.60;;;;;;5052520;28;19936;-54
2022/04/10 12:12:03;;;;;;;3.15;0.47;;;11.00;93.10;;;;;;5052989;28;20468;-52
2022/04/10 12:14:29;;;;;;;9.00;0.57;;;10.90;94.10;;;;;;5052387;28;20052;-51
2022/04/10 12:16:54;;;;;;;6.05;0.93;;;10.80;93.80;;;;;;5032666;28;20049;-52
2022/04/10 12:19:35;;;;;;;4.40;0.57;;;10.70;94.40;;;;;;5053444;28;20077;-54
2022/04/10 12:22:08;;;;;;;4.20;0.40;;;10.70;94.30;;;;;;5052317;28;20363;-52
2022/04/10 12:24:36;;;;;;;2.42;0.20;;;10.80;94.30;;;;;;5033518;28;20107;-52
2022/04/10 12:27:05;;;;;;;2.65;0.80;;;11.00;92.70;;;;;;5034733;28;20038;-51
2022/04/10 12:29:31;;;;;;;3.83;0.35;;;11.10;91.80;;;;;;5033366;28;20037;-51
2022/04/10 12:31:58;;;;;;;3.47;0.50;;;11.20;92.70;;;;;;5042749;28;20040;-53
2022/04/10 12:34:30;;;;;;;2.70;0.30;;;11.30;92.70;;;;;;5050313;28;20033;-52
2022/04/10 12:37:12;;;;;;;4.53;0.50;;;11.40;92.60;;;;;;5041076;28;20048;-51
2022/04/10 12:39:38;;;;;;;7.53;0.50;;;11.40;92.00;;;;;;5050684;28;20072;-53
2022/04/10 12:42:10;;;;;;;4.65;0.30;;;11.40;91.90;;;;;;5034747;28;20064;-52
2022/04/10 12:44:38;;;;;;;6.10;1.10;;;11.40;92.80;;;;;;5045982;28;20045;-54
2022/04/10 12:47:06;;;;;;;7.13;0.95;;;11.50;91.90;;;;;;5051051;28;20116;-51
2022/04/10 12:49:32;;;;;;;7.00;0.60;;;11.60;93.00;;;;;;5049933;28;20091;-51
2022/04/10 12:52:03;;;;;;;1.27;0.57;;;11.60;93.10;;;;;;5050505;28;20045;-51
2022/04/10 12:54:39;;;;;;;3.53;0.30;;;11.80;92.10;;;;;;5041587;28;20045;-53
2022/04/10 12:57:06;;;;;;;4.35;0.40;;;11.90;91.70;;;;;;5032494;28;20160;-52
2022/04/10 12:59:46;;;;;;;4.43;0.22;;;12.00;90.70;;;;;;5048405;28;20036;-53
2022/04/10 13:02:26;;;;;;;2.47;0.40;;;12.10;88.80;;;;;;5052556;28;20037;-51
2022/04/10 13:05:03;;;;;;;1.80;0.20;;;12.00;86.80;;;;;;5039642;28;20076;-51